createdAt,value
2023-04-01T11:03:45.682Z,10.15
2023-04-01T11:06:56.435Z,10.13
2023-04-01T11:09:45.794Z,10.14
2023-04-01T11:12:43.925Z,10.14
2023-04-01T11:15:27.831Z,10.16
2023-04-01T11:18:17.596Z,10.20
2023-04-01T11:20:57.489Z,10.22
2023-04-01T11:23:47.202Z,10.21
2023-04-01T11:26:43.825Z,10.16
2023-04-01T11:30:12.093Z,10.12
2023-04-01T11:33:13.658Z,10.15
2023-04-01T11:36:32.062Z,10.18
2023-04-01T11:39:30.061Z,10.17
2023-04-01T11:42:32.538Z,10.12
2023-04-01T11:45:54.676Z,10.04
2023-04-01T11:48:45.001Z,9.98
2023-04-01T11:51:19.154Z,9.96
2023-04-01T11:54:05.187Z,9.98
2023-04-01T11:56:58.021Z,10.01
2023-04-01T11:59:50.392Z,10.00
2023-04-01T12:02:23.355Z,9.97
2023-04-01T12:05:03.016Z,9.93
2023-04-01T12:08:04.830Z,9.89
2023-04-01T12:10:58.684Z,9.87
2023-04-01T12:13:50.205Z,9.87
2023-04-01T12:16:39.580Z,9.89
2023-04-01T12:19:15.326Z,9.90
2023-04-01T12:22:11.357Z,9.88
2023-04-01T12:24:50.096Z,9.84
2023-04-01T12:27:30.369Z,9.80
2023-04-01T12:30:16.386Z,9.79
2023-04-01T12:33:05.716Z,9.76
2023-04-01T12:36:00.565Z,9.72
2023-04-01T12:38:49.171Z,9.69
2023-04-01T12:41:40.083Z,9.65
2023-04-01T12:44:21.528Z,9.62
2023-04-01T12:46:51.601Z,9.60
2023-04-01T12:49:48.535Z,9.59
2023-04-01T12:52:34.878Z,9.58
2023-04-01T12:55:20.187Z,9.59
2023-04-01T12:57:50.541Z,9.62
2023-04-01T13:00:35.791Z,9.63
2023-04-01T13:03:20.172Z,9.64
2023-04-01T13:06:34.916Z,9.65
2023-04-01T13:09:18.133Z,9.70
2023-04-01T13:11:54.934Z,9.76
2023-04-01T13:14:50.713Z,9.81
2023-04-01T13:17:24.069Z,9.88
2023-04-01T13:20:04.739Z,9.93
2023-04-01T13:22:38.527Z,9.98
2023-04-01T13:25:20.140Z,10.04
2023-04-01T13:28:05.441Z,10.09
2023-04-01T13:30:41.836Z,10.12
2023-04-01T13:33:33.477Z,10.16
2023-04-01T13:36:26.981Z,10.23
2023-04-01T13:39:01.590Z,10.36
2023-04-01T13:42:09.095Z,10.49
2023-04-01T13:44:48.222Z,10.66
2023-04-01T13:47:37.792Z,10.74
2023-04-01T13:50:27.019Z,10.78
2023-04-01T13:53:16.112Z,10.77
2023-04-01T13:56:09.718Z,10.68
2023-04-01T13:58:56.269Z,10.54
2023-04-01T14:01:55.361Z,10.43
2023-04-01T14:04:44.190Z,10.35
2023-04-01T14:07:30.633Z,10.27
2023-04-01T14:10:09.908Z,10.16
2023-04-01T14:12:51.256Z,10.05
2023-04-01T14:15:39.412Z,9.95
2023-04-01T14:18:19.029Z,9.89
2023-04-01T14:21:03.805Z,9.88
2023-04-01T14:23:43.044Z,9.89
2023-04-01T14:26:35.546Z,9.88
2023-04-01T14:29:40.266Z,9.86
2023-04-01T14:32:19.172Z,9.84
2023-04-01T14:35:04.930Z,9.82
2023-04-01T14:37:42.355Z,9.78
2023-04-01T14:40:40.499Z,9.73
2023-04-01T14:43:22.704Z,9.66
2023-04-01T14:45:58.579Z,9.59
2023-04-01T14:48:37.157Z,9.53
2023-04-01T14:51:14.429Z,9.46
2023-04-01T14:53:56.777Z,9.41
2023-04-01T14:57:12.649Z,9.36
2023-04-01T14:59:49.326Z,9.31
2023-04-01T15:02:25.871Z,9.26
2023-04-01T15:05:17.325Z,9.20
2023-04-01T15:08:11.180Z,9.14
2023-04-01T15:10:43.880Z,9.10
2023-04-01T15:13:38.661Z,9.08
2023-04-01T15:16:08.797Z,9.06
2023-04-01T15:18:57.274Z,9.04
2023-04-01T15:21:27.460Z,9.00
2023-04-01T15:24:18.511Z,8.96
2023-04-01T15:26:45.522Z,8.91
2023-04-01T15:29:37.091Z,8.86
2023-04-01T15:54:43.193Z,8.18
2023-04-01T15:58:01.022Z,8.11
2023-04-01T16:00:52.042Z,8.04
2023-04-01T16:03:32.700Z,7.98
2023-04-01T16:06:18.999Z,7.93
2023-04-01T16:09:09.067Z,7.88
2023-04-01T16:11:58.552Z,7.83
2023-04-01T16:14:54.115Z,7.76
2023-04-01T16:17:47.950Z,7.68
2023-04-01T16:20:17.917Z,7.60
2023-04-01T16:22:57.283Z,7.55
2023-04-01T16:25:42.230Z,7.50
2023-04-01T16:28:33.539Z,7.45
2023-04-01T16:31:05.568Z,7.40
2023-04-01T16:33:58.560Z,7.35
2023-04-01T16:36:37.368Z,7.30
2023-04-01T16:39:16.635Z,7.25
2023-04-01T16:41:54.695Z,7.20
2023-04-01T16:44:21.828Z,7.16
2023-04-01T16:46:59.978Z,7.13
2023-04-01T16:50:08.934Z,7.09
2023-04-01T16:53:04.440Z,7.05
2023-04-01T16:55:42.556Z,7.01
2023-04-01T16:58:14.673Z,6.98
2023-04-01T17:00:48.806Z,6.93
2023-04-01T17:03:24.573Z,6.88
2023-04-01T17:06:21.288Z,6.83
2023-04-01T17:09:23.878Z,6.78
2023-04-01T17:12:03.593Z,6.72
2023-04-01T17:14:48.296Z,6.66
2023-04-01T17:17:22.545Z,6.62
2023-04-01T17:20:18.299Z,6.57
2023-04-01T17:22:55.600Z,6.53
2023-04-01T17:25:38.865Z,6.49
2023-04-01T17:28:21.487Z,6.46
2023-04-01T17:31:08.612Z,6.39
2023-04-01T17:34:01.772Z,6.33
2023-04-01T17:36:32.351Z,6.27
2023-04-01T17:39:31.391Z,6.23
2023-04-01T17:42:15.257Z,6.18
2023-04-01T17:44:48.664Z,6.13
2023-04-01T17:47:40.265Z,6.08
2023-04-01T17:50:21.282Z,6.05
2023-04-01T17:53:12.639Z,6.01
2023-04-01T17:55:49.105Z,5.97
2023-04-01T17:58:32.705Z,5.93
2023-04-01T18:01:18.783Z,5.89
2023-04-01T18:04:05.679Z,5.84
2023-04-01T18:06:36.585Z,5.79
2023-04-01T18:09:35.216Z,5.74
2023-04-01T18:12:11.301Z,5.69
2023-04-01T18:14:50.708Z,5.64
2023-04-01T18:17:39.161Z,5.58
2023-04-01T18:20:19.043Z,5.52
2023-04-01T18:22:57.888Z,5.45
2023-04-01T18:25:37.911Z,5.39
2023-04-01T18:28:36.785Z,5.36
2023-04-01T18:31:06.445Z,5.32
2023-04-01T18:34:02.433Z,5.29
2023-04-01T18:36:52.364Z,5.23
2023-04-01T18:39:34.785Z,5.15
2023-04-01T18:42:02.476Z,5.09
2023-04-01T18:44:35.404Z,5.04
2023-04-01T18:47:14.441Z,4.98
2023-04-01T18:49:56.522Z,4.93
2023-04-01T18:52:35.160Z,4.87
2023-04-01T18:55:02.028Z,4.82
2023-04-01T18:58:27.834Z,4.79
2023-04-01T19:01:14.733Z,4.76
2023-04-01T19:03:54.283Z,4.73
2023-04-01T19:06:32.296Z,4.70
2023-04-01T19:09:21.804Z,4.68
2023-04-01T19:12:01.415Z,4.64
2023-04-01T19:15:02.482Z,4.63
2023-04-01T19:17:44.669Z,4.63
2023-04-01T19:20:19.539Z,4.64
2023-04-01T19:22:53.000Z,4.66
2023-04-01T19:25:37.800Z,4.68
2023-04-01T19:28:14.249Z,4.70
2023-04-01T19:30:58.492Z,4.72
2023-04-01T19:33:59.844Z,4.74
2023-04-01T19:36:57.172Z,4.79
2023-04-01T19:39:55.281Z,4.84
2023-04-01T19:42:34.711Z,4.87
2023-04-01T19:45:18.950Z,4.88
2023-04-01T19:48:06.542Z,4.87
2023-04-01T19:50:53.646Z,4.85
2023-04-01T19:53:31.779Z,4.82
2023-04-01T19:56:20.105Z,4.80
2023-04-01T19:58:56.600Z,4.78
2023-04-01T20:01:44.700Z,4.77
2023-04-01T20:04:21.247Z,4.76
2023-04-01T20:07:16.812Z,4.76
2023-04-01T20:10:07.177Z,4.76
2023-04-01T20:12:40.214Z,4.78
2023-04-01T20:15:45.847Z,4.81
2023-04-01T20:18:21.540Z,4.84
2023-04-01T20:21:00.194Z,4.85
2023-04-01T20:23:44.420Z,4.88
2023-04-01T20:26:13.444Z,4.92
2023-04-01T20:28:49.424Z,4.96
2023-04-01T20:31:16.647Z,4.99
2023-04-01T20:34:08.719Z,5.02
2023-04-01T20:37:01.685Z,5.04
2023-04-01T20:39:53.546Z,5.05
2023-04-01T20:42:46.947Z,5.03
2023-04-01T20:45:34.384Z,5.00
2023-04-01T20:48:39.948Z,4.99
2023-04-01T20:51:22.268Z,4.96
2023-04-01T20:54:02.820Z,4.94
2023-04-01T20:56:43.682Z,4.93
2023-04-01T20:59:39.111Z,4.94
2023-04-01T21:02:33.407Z,4.97
2023-04-01T21:05:41.188Z,4.98
2023-04-01T21:08:20.704Z,5.02
2023-04-01T21:11:21.584Z,5.06
2023-04-01T21:14:07.144Z,5.11
2023-04-01T21:17:17.717Z,5.16
2023-04-01T21:19:51.736Z,5.19
2023-04-01T21:22:55.849Z,5.21
2023-04-01T21:25:56.815Z,5.22
2023-04-01T21:28:23.820Z,5.24
2023-04-01T21:31:13.246Z,5.27
2023-04-01T21:33:53.249Z,5.32
2023-04-01T21:36:29.361Z,5.36
2023-04-01T21:38:59.846Z,5.40
2023-04-01T21:41:54.278Z,5.44
2023-04-01T21:44:41.102Z,5.48
2023-04-01T21:47:17.632Z,5.52
2023-04-01T21:50:04.847Z,5.55
2023-04-01T21:52:57.782Z,5.58
2023-04-01T21:55:45.883Z,5.60
2023-04-01T21:58:57.547Z,5.61
2023-04-01T22:01:46.135Z,5.62
2023-04-01T22:04:38.603Z,5.63
2023-04-01T22:07:48.832Z,5.64
2023-04-01T22:10:41.121Z,5.64
2023-04-01T22:13:19.215Z,5.65
2023-04-01T22:16:06.122Z,5.66
2023-04-01T22:18:55.899Z,5.67
2023-04-01T22:21:52.506Z,5.69
2023-04-01T22:24:52.134Z,5.72
2023-04-01T22:27:35.358Z,5.74
2023-04-01T22:30:08.499Z,5.76
2023-04-01T22:32:45.110Z,5.77
2023-04-01T22:35:18.234Z,5.75
2023-04-01T22:38:30.513Z,5.74
2023-04-01T22:41:52.227Z,5.74
2023-04-01T22:44:52.585Z,5.73
2023-04-01T22:47:38.022Z,5.72
2023-04-01T22:50:14.172Z,5.70
2023-04-01T22:52:45.829Z,5.71
2023-04-01T22:55:28.026Z,5.70
2023-04-01T22:58:03.551Z,5.69
2023-04-01T23:00:53.798Z,5.69
2023-04-01T23:03:28.822Z,5.70
2023-04-01T23:05:59.359Z,5.70
2023-04-01T23:08:41.391Z,5.72
2023-04-01T23:11:27.041Z,5.72
2023-04-01T23:14:04.602Z,5.72
2023-04-01T23:16:41.418Z,5.71
2023-04-01T23:19:19.102Z,5.71
2023-04-01T23:21:52.280Z,5.71
2023-04-01T23:24:28.719Z,5.69
2023-04-01T23:26:58.750Z,5.67
2023-04-01T23:29:27.152Z,5.64
2023-04-01T23:32:00.118Z,5.61
2023-04-01T23:34:31.129Z,5.60
2023-04-01T23:37:10.682Z,5.58
2023-04-01T23:39:41.124Z,5.55
2023-04-01T23:42:13.880Z,5.54
2023-04-01T23:44:41.609Z,5.51
2023-04-01T23:47:16.459Z,5.50
2023-04-01T23:49:51.399Z,5.47
2023-04-01T23:52:32.835Z,5.46
2023-04-01T23:55:09.590Z,5.45
2023-04-01T23:57:37.431Z,5.44
